Time;durP1;ratioP1;P1;durP2;ratioP2;P2;SDS_P1;SDS_P2;PMS_P1;PMS_P2;Temp;Humidity;BMP_temperature;BMP_pressure;BME280_temperature;BME280_humidity;BME280_pressure;Samples;Min_cycle;Max_cycle;Signal;HPM_P1;HPM_P2
2021/12/30 00:00:26;;;;;;;7.75;3.33;;;;;;;7.66;100.00;99882.66;4986414;28;20034;-75
2021/12/30 00:02:52;;;;;;;7.75;2.95;;;;;;;7.76;100.00;99880.16;4980222;28;20045;-74
2021/12/30 00:05:17;;;;;;;7.97;2.75;;;;;;;7.63;100.00;99888.69;4987511;28;20621;-74
2021/12/30 00:07:43;;;;;;;8.90;2.90;;;;;;;7.54;100.00;99905.00;4980010;28;20042;-74
2021/12/30 00:10:10;;;;;;;7.80;3.15;;;;;;;7.59;100.00;99901.28;4993195;28;20116;-74
2021/12/30 00:12:39;;;;;;;7.10;2.33;;;;;;;7.60;100.00;99886.75;4988202;28;20056;-74
2021/12/30 00:15:07;;;;;;;9.30;3.45;;;;;;;7.57;100.00;99895.50;4987941;28;20601;-74
2021/12/30 00:17:33;;;;;;;8.45;2.95;;;;;;;7.59;100.00;99882.53;4989013;28;20034;-74
2021/12/30 00:19:59;;;;;;;5.55;2.65;;;;;;;7.63;100.00;99886.03;4992189;28;20050;-74
2021/12/30 00:22:24;;;;;;;4.97;2.45;;;;;;;7.62;100.00;99890.63;4992130;28;20030;-74
2021/12/30 00:24:50;;;;;;;6.03;2.88;;;;;;;7.65;100.00;99897.94;4984699;28;20424;-74
2021/12/30 00:27:15;;;;;;;6.70;2.67;;;;;;;7.75;100.00;99901.97;4991693;28;20038;-74
2021/12/30 00:29:41;;;;;;;7.07;2.72;;;;;;;7.69;100.00;99904.16;4992221;28;20093;-74
2021/12/30 00:32:07;;;;;;;7.38;3.35;;;;;;;7.74;100.00;99908.47;4997717;28;20122;-74
2021/12/30 00:34:32;;;;;;;6.75;2.22;;;;;;;7.74;100.00;99901.19;5000982;28;20109;-74
2021/12/30 00:36:58;;;;;;;5.95;2.70;;;;;;;7.66;100.00;99917.50;4993110;28;20068;-74
2021/12/30 00:39:23;;;;;;;8.10;2.80;;;;;;;7.65;100.00;99930.09;5008792;28;20041;-75
2021/12/30 00:41:48;;;;;;;8.02;2.53;;;;;;;7.67;100.00;99929.75;4975074;28;20038;-74
2021/12/30 00:44:17;;;;;;;5.43;2.38;;;;;;;7.71;100.00;99927.91;4988681;28;20546;-74
2021/12/30 00:46:42;;;;;;;7.28;2.28;;;;;;;7.68;100.00;99920.59;4985034;28;20109;-74
2021/12/30 00:49:09;;;;;;;5.63;2.70;;;;;;;7.65;100.00;99916.69;5002704;28;20039;-74
2021/12/30 00:51:36;;;;;;;3.75;2.17;;;;;;;7.69;100.00;99924.81;4989284;28;20092;-74
2021/12/30 00:54:03;;;;;;;3.90;1.92;;;;;;;7.70;100.00;99921.00;4991585;28;20530;-74
2021/12/30 00:56:28;;;;;;;4.70;2.42;;;;;;;7.73;100.00;99909.56;4974646;28;20027;-74
2021/12/30 00:58:54;;;;;;;5.68;2.50;;;;;;;7.70;100.00;99923.69;4975135;28;20045;-74
2021/12/30 01:01:20;;;;;;;7.15;2.30;;;;;;;7.81;100.00;99924.66;4980148;28;20049;-74
2021/12/30 01:03:46;;;;;;;8.32;2.67;;;;;;;7.80;100.00;99929.25;4976052;28;20042;-74
2021/12/30 01:06:12;;;;;;;7.28;2.83;;;;;;;7.82;100.00;99923.56;4986606;28;20499;-75
2021/12/30 01:08:38;;;;;;;5.97;2.47;;;;;;;7.98;100.00;99927.69;4991432;28;20044;-74
2021/12/30 01:11:07;;;;;;;6.78;2.58;;;;;;;8.10;100.00;99935.56;4993206;28;20038;-74
2021/12/30 01:13:38;;;;;;;5.65;2.35;;;;;;;8.01;100.00;99937.69;4988414;28;20510;-74
2021/12/30 01:16:06;;;;;;;6.18;2.67;;;;;;;8.03;100.00;99938.09;4989874;28;20162;-74
2021/12/30 01:19:01;;;;;;;8.75;2.40;;;;;;;8.04;100.00;99936.22;4976226;28;20035;-74
2021/12/30 01:21:31;;;;;;;5.47;2.03;;;;;;;8.02;100.00;99951.88;4965469;28;20070;-74
2021/12/30 01:23:58;;;;;;;4.75;2.08;;;;;;;8.03;100.00;99969.53;4992189;28;20042;-75
2021/12/30 01:26:24;;;;;;;5.35;2.38;;;;;;;8.01;100.00;99969.09;4977067;28;20049;-74
2021/12/30 01:28:50;;;;;;;5.80;2.33;;;;;;;7.99;100.00;99966.75;4980232;28;20043;-75
2021/12/30 01:31:17;;;;;;;5.45;2.15;;;;;;;7.98;100.00;99973.25;4989410;28;20058;-74
2021/12/30 01:33:44;;;;;;;6.03;3.08;;;;;;;8.06;100.00;99972.28;4974888;28;20069;-75
2021/12/30 01:36:11;;;;;;;7.20;2.60;;;;;;;8.06;100.00;99988.34;4988031;28;20459;-74
2021/12/30 01:38:37;;;;;;;4.22;2.08;;;;;;;7.99;100.00;100006.97;4988078;28;20499;-75
2021/12/30 01:41:06;;;;;;;8.88;3.58;;;;;;;8.07;100.00;100015.94;4989384;28;20380;-75
2021/12/30 01:43:33;;;;;;;8.98;3.35;;;;;;;8.14;100.00;100010.72;4974072;28;20114;-74
2021/12/30 01:45:59;;;;;;;7.57;2.88;;;;;;;8.23;100.00;100013.94;4979164;28;20050;-75
2021/12/30 01:48:25;;;;;;;6.25;3.28;;;;;;;8.27;100.00;100016.72;4992454;28;20041;-74
2021/12/30 01:50:50;;;;;;;8.65;3.85;;;;;;;8.29;100.00;100011.78;4987994;28;20085;-74
2021/12/30 01:53:16;;;;;;;8.32;2.83;;;;;;;8.43;100.00;100012.84;4984715;28;20042;-75
2021/12/30 01:55:42;;;;;;;9.18;3.15;;;;;;;8.56;100.00;100010.75;4988151;28;20039;-74
2021/12/30 01:58:09;;;;;;;7.35;2.75;;;;;;;8.62;100.00;100026.22;4982525;28;20085;-74
2021/12/30 02:00:37;;;;;;;6.43;3.08;;;;;;;8.60;100.00;100017.75;4989382;28;20034;-75
2021/12/30 02:03:03;;;;;;;11.38;4.03;;;;;;;8.61;100.00;100019.31;4988817;28;20044;-75
2021/12/30 02:05:29;;;;;;;5.43;2.75;;;;;;;8.72;100.00;100024.84;4990355;28;20050;-75
2021/12/30 02:07:55;;;;;;;9.15;3.30;;;;;;;8.84;100.00;100022.00;4990714;28;20086;-74
2021/12/30 02:10:26;;;;;;;10.77;3.50;;;;;;;8.86;100.00;100025.88;4990279;28;20027;-75
2021/12/30 02:12:52;;;;;;;10.35;4.35;;;;;;;9.09;100.00;100028.53;4985310;28;20391;-75
2021/12/30 02:15:19;;;;;;;10.88;3.08;;;;;;;8.91;100.00;100028.25;4983319;28;20022;-74
2021/12/30 02:17:48;;;;;;;8.25;2.97;;;;;;;8.89;100.00;100037.78;4971978;28;20057;-74
2021/12/30 02:20:36;;;;;;;10.27;3.35;;;;;;;8.97;100.00;100039.47;4971997;28;20116;-74
2021/12/30 02:23:01;;;;;;;8.52;3.78;;;;;;;9.05;100.00;100051.88;4988896;28;20034;-75
2021/12/30 02:25:27;;;;;;;9.40;3.53;;;;;;;8.90;100.00;100048.16;4976559;28;20043;-75
2021/12/30 02:27:55;;;;;;;9.77;3.92;;;;;;;9.01;100.00;100059.88;4983416;28;20026;-74
2021/12/30 02:30:20;;;;;;;10.88;3.80;;;;;;;9.20;100.00;100071.66;4990300;28;20041;-74
2021/12/30 02:32:46;;;;;;;9.38;3.35;;;;;;;9.02;100.00;100066.78;4989127;28;20034;-75
2021/12/30 02:35:11;;;;;;;12.18;3.38;;;;;;;9.23;100.00;100070.97;4976455;28;20031;-74
2021/12/30 02:37:36;;;;;;;11.45;3.63;;;;;;;9.19;100.00;100070.91;4991684;28;20022;-74
2021/12/30 02:40:04;;;;;;;14.90;3.75;;;;;;;9.10;100.00;100078.41;4990706;28;20073;-74
2021/12/30 02:42:29;;;;;;;8.00;3.25;;;;;;;9.10;100.00;100084.56;5004666;28;20037;-74
2021/12/30 02:44:54;;;;;;;8.00;3.03;;;;;;;9.07;100.00;100081.84;4989783;28;20039;-75
2021/12/30 02:47:20;;;;;;;9.95;3.75;;;;;;;9.20;100.00;100071.66;4989021;28;20034;-74
2021/12/30 02:49:45;;;;;;;7.90;2.97;;;;;;;9.23;100.00;100065.59;4989615;28;20042;-74
2021/12/30 02:52:12;;;;;;;8.82;2.92;;;;;;;9.22;100.00;100080.16;4987614;28;20038;-75
2021/12/30 02:54:42;;;;;;;6.15;2.97;;;;;;;9.17;100.00;100083.94;4985392;28;20021;-74
2021/12/30 02:57:08;;;;;;;12.63;3.40;;;;;;;9.07;100.00;100114.06;5007746;28;20072;-75
2021/12/30 02:59:33;;;;;;;10.68;3.08;;;;;;;9.19;100.00;100121.94;4973485;28;20329;-74
2021/12/30 03:01:59;;;;;;;8.30;3.00;;;;;;;9.21;100.00;100127.75;4984271;28;20113;-74
2021/12/30 03:04:26;;;;;;;5.80;2.90;;;;;;;9.21;100.00;100117.00;4971223;28;20467;-75
2021/12/30 03:06:52;;;;;;;12.65;2.42;;;;;;;9.19;100.00;100124.63;4989320;28;20032;-74
2021/12/30 03:09:17;;;;;;;9.02;2.80;;;;;;;9.39;100.00;100142.22;5000148;28;20038;-74
2021/12/30 03:11:43;;;;;;;11.25;3.25;;;;;;;9.37;100.00;100141.81;4993100;28;20036;-75
2021/12/30 03:14:08;;;;;;;4.13;2.17;;;;;;;9.39;100.00;100155.66;4990202;28;20037;-74
2021/12/30 03:16:37;;;;;;;11.70;3.15;;;;;;;9.26;100.00;100143.56;4989861;28;20101;-75
2021/12/30 03:19:04;;;;;;;5.57;2.83;;;;;;;9.34;100.00;100160.56;4989818;28;20049;-74
2021/12/30 03:21:29;;;;;;;6.93;2.28;;;;;;;9.44;100.00;100168.81;4986576;28;20061;-75
2021/12/30 03:23:58;;;;;;;4.85;2.70;;;;;;;9.49;100.00;100167.72;4988351;28;20030;-74
2021/12/30 03:26:24;;;;;;;4.88;2.53;;;;;;;9.38;100.00;100172.94;4990282;28;20088;-74
2021/12/30 03:28:51;;;;;;;5.65;1.95;;;;;;;9.32;100.00;100166.31;4990943;28;20057;-74
2021/12/30 03:31:19;;;;;;;6.07;2.58;;;;;;;9.29;100.00;100155.50;4987657;28;20121;-74
2021/12/30 03:33:45;;;;;;;8.45;3.30;;;;;;;9.44;100.00;100163.44;4987961;28;20581;-74
2021/12/30 03:36:11;;;;;;;7.72;2.50;;;;;;;9.29;100.00;100161.63;4981765;28;20057;-74
2021/12/30 03:38:41;;;;;;;7.53;2.90;;;;;;;9.37;100.00;100162.56;4987667;28;20125;-75
2021/12/30 03:41:08;;;;;;;8.07;2.08;;;;;;;9.23;100.00;100165.00;4989928;28;20030;-75
2021/12/30 03:43:35;;;;;;;9.57;2.30;;;;;;;9.37;100.00;100170.63;4983757;28;20122;-75
2021/12/30 03:46:00;;;;;;;4.68;2.03;;;;;;;9.45;100.00;100177.63;4987077;28;20117;-75
2021/12/30 03:48:33;;;;;;;4.93;2.53;;;;;;;9.36;100.00;100171.72;4976374;28;20046;-75
2021/12/30 03:51:04;;;;;;;2.30;1.80;;;;;;;9.47;100.00;100180.75;4984113;28;20506;-74
2021/12/30 03:53:31;;;;;;;3.72;1.77;;;;;;;9.53;100.00;100182.00;4985744;28;20034;-75
2021/12/30 03:55:56;;;;;;;3.50;1.48;;;;;;;9.49;100.00;100175.78;4987731;28;20046;-74
2021/12/30 03:58:21;;;;;;;1.90;1.52;;;;;;;9.43;100.00;100167.25;4982548;28;20044;-75
2021/12/30 04:00:47;;;;;;;3.88;1.52;;;;;;;9.17;100.00;100177.16;4988285;28;20042;-74
2021/12/30 04:03:12;;;;;;;5.00;2.45;;;;;;;9.13;100.00;100184.38;4968672;28;20042;-74
2021/12/30 04:05:38;;;;;;;8.30;2.50;;;;;;;9.28;100.00;100192.31;4988524;28;20034;-75
2021/12/30 04:08:03;;;;;;;3.60;1.38;;;;;;;9.18;100.00;100187.53;4982284;28;20138;-75
2021/12/30 04:10:29;;;;;;;7.65;1.50;;;;;;;9.20;100.00;100187.97;4987264;28;20038;-75
2021/12/30 04:12:56;;;;;;;6.00;1.40;;;;;;;9.23;100.00;100175.72;4989057;28;20443;-75
2021/12/30 04:15:21;;;;;;;4.15;1.52;;;;;;;9.07;100.00;100182.00;4979813;28;20089;-74
2021/12/30 04:17:47;;;;;;;2.95;1.30;;;;;;;9.06;100.00;100185.00;4971343;28;20030;-75
2021/12/30 04:20:15;;;;;;;4.45;2.08;;;;;;;9.20;100.00;100193.31;4992522;28;20483;-74
2021/12/30 04:22:42;;;;;;;2.50;1.48;;;;;;;9.16;100.00;100199.75;4990035;28;20660;-75
2021/12/30 04:25:11;;;;;;;3.00;1.90;;;;;;;9.09;100.00;100211.94;4981995;28;20050;-74
2021/12/30 04:27:37;;;;;;;5.82;2.00;;;;;;;9.03;100.00;100196.47;4986730;28;20491;-74
2021/12/30 04:30:04;;;;;;;5.97;1.60;;;;;;;9.00;100.00;100195.25;4982140;28;20045;-74
2021/12/30 04:32:33;;;;;;;7.20;1.83;;;;;;;8.96;100.00;100186.38;4984498;28;20499;-74
2021/12/30 04:34:58;;;;;;;3.10;1.50;;;;;;;9.35;100.00;100175.56;4975935;28;20384;-74
2021/12/30 04:37:24;;;;;;;2.65;1.50;;;;;;;9.12;100.00;100177.47;4985283;28;20038;-75
2021/12/30 04:39:49;;;;;;;4.43;1.40;;;;;;;9.12;100.00;100177.47;4989624;28;20101;-74
2021/12/30 04:42:14;;;;;;;5.72;1.67;;;;;;;9.04;100.00;100174.63;4977970;28;20503;-75
2021/12/30 04:44:40;;;;;;;8.85;1.83;;;;;;;8.98;100.00;100167.97;4991074;28;20038;-75
2021/12/30 04:47:06;;;;;;;3.90;1.88;;;;;;;9.06;100.00;100175.03;4975397;28;20118;-75
2021/12/30 04:49:32;;;;;;;3.55;1.80;;;;;;;9.23;100.00;100162.31;4993715;28;20077;-74
2021/12/30 04:51:57;;;;;;;2.97;1.80;;;;;;;9.03;100.00;100169.63;4989973;28;20289;-75
2021/12/30 04:54:23;;;;;;;4.13;1.70;;;;;;;8.94;100.00;100171.75;4990283;28;20045;-74
2021/12/30 04:56:49;;;;;;;2.30;1.40;;;;;;;9.02;100.00;100184.94;4973055;28;20408;-75
2021/12/30 04:59:14;;;;;;;5.13;1.65;;;;;;;8.87;100.00;100183.13;4976576;28;20089;-74
2021/12/30 05:01:40;;;;;;;4.70;1.42;;;;;;;8.91;100.00;100189.34;4992725;28;20081;-74
2021/12/30 05:04:08;;;;;;;9.07;2.30;;;;;;;8.78;100.00;100174.53;4999026;28;20038;-75
2021/12/30 05:06:36;;;;;;;4.68;1.30;;;;;;;8.81;100.00;100189.91;4995202;28;20027;-74
2021/12/30 05:09:03;;;;;;;6.30;1.50;;;;;;;8.76;100.00;100195.56;4991877;28;20038;-75
2021/12/30 05:11:28;;;;;;;2.25;1.35;;;;;;;8.78;100.00;100203.28;4982186;28;20117;-75
2021/12/30 05:13:54;;;;;;;2.38;1.27;;;;;;;8.77;100.00;100194.44;4986257;28;20130;-75
2021/12/30 05:16:19;;;;;;;3.78;1.20;;;;;;;8.79;100.00;100186.81;4988418;28;20118;-75
2021/12/30 05:18:45;;;;;;;3.53;1.63;;;;;;;8.67;100.00;100184.25;4990979;28;20473;-74
2021/12/30 05:21:11;;;;;;;2.78;1.35;;;;;;;8.74;100.00;100187.09;4982870;28;20041;-74
2021/12/30 05:23:38;;;;;;;1.85;0.85;;;;;;;8.75;100.00;100172.53;4975828;28;20121;-75
2021/12/30 05:26:04;;;;;;;4.47;1.52;;;;;;;8.77;100.00;100162.22;4988115;28;20487;-75
2021/12/30 05:28:33;;;;;;;5.55;1.90;;;;;;;8.79;100.00;100165.31;5001836;28;20045;-74
2021/12/30 05:30:58;;;;;;;5.90;2.30;;;;;;;8.75;100.00;100171.78;4972432;28;20049;-75
2021/12/30 05:33:23;;;;;;;2.25;1.60;;;;;;;8.83;100.00;100190.34;5006449;28;20034;-75
2021/12/30 05:35:49;;;;;;;3.53;1.10;;;;;;;8.82;100.00;100199.53;4974793;28;20037;-74
2021/12/30 05:38:17;;;;;;;5.15;1.83;;;;;;;8.94;100.00;100217.41;4982707;28;20042;-75
2021/12/30 05:40:43;;;;;;;4.43;2.13;;;;;;;8.82;100.00;100218.31;4986317;28;20113;-74
2021/12/30 05:43:09;;;;;;;4.80;1.98;;;;;;;8.86;100.00;100213.81;4985882;28;20041;-74
2021/12/30 05:45:35;;;;;;;3.20;1.85;;;;;;;8.79;100.00;100221.69;4989365;28;20483;-75
2021/12/30 05:48:00;;;;;;;3.40;1.77;;;;;;;8.68;100.00;100209.97;4977255;28;20043;-75
2021/12/30 05:50:31;;;;;;;4.03;1.85;;;;;;;8.92;100.00;100212.38;4981928;28;20097;-75
2021/12/30 05:52:56;;;;;;;12.73;2.08;;;;;;;8.86;100.00;100208.44;4980085;28;20122;-75
2021/12/30 05:55:22;;;;;;;7.32;2.25;;;;;;;8.82;100.00;100206.81;5006973;28;20480;-74
2021/12/30 05:57:49;;;;;;;9.07;2.38;;;;;;;8.82;100.00;100223.69;4989165;28;20045;-74
2021/12/30 06:00:16;;;;;;;5.07;1.92;;;;;;;8.83;100.00;100219.09;4991352;28;20049;-74
2021/12/30 06:02:42;;;;;;;8.55;2.20;;;;;;;8.79;100.00;100224.38;4985506;28;20133;-75
2021/12/30 06:05:08;;;;;;;3.80;1.98;;;;;;;8.80;100.00;100235.91;4987007;28;20125;-74
2021/12/30 06:07:34;;;;;;;6.47;2.65;;;;;;;9.03;100.00;100244.81;4991995;28;20400;-75
2021/12/30 06:09:59;;;;;;;10.15;2.60;;;;;;;8.99;100.00;100250.13;4991098;28;20149;-75
2021/12/30 06:12:24;;;;;;;8.48;2.38;;;;;;;9.06;100.00;100254.84;4989291;28;20451;-74
2021/12/30 06:14:50;;;;;;;7.72;2.95;;;;;;;9.11;100.00;100262.63;4991740;28;20041;-74
2021/12/30 06:17:15;;;;;;;10.70;3.20;;;;;;;9.06;100.00;100260.19;4988608;28;20065;-75
2021/12/30 06:19:44;;;;;;;6.95;2.58;;;;;;;9.16;100.00;100256.94;4990194;28;20034;-74
2021/12/30 06:22:11;;;;;;;15.55;3.63;;;;;;;9.12;100.00;100250.72;4989717;28;20128;-75
2021/12/30 06:24:36;;;;;;;10.88;3.33;;;;;;;9.17;100.00;100234.34;4989848;28;20062;-74
2021/12/30 06:27:02;;;;;;;9.82;3.53;;;;;;;9.14;100.00;100237.72;4985123;28;20065;-75
2021/12/30 06:29:28;;;;;;;7.68;3.20;;;;;;;9.10;100.00;100243.03;4983914;28;20038;-75
2021/12/30 06:31:53;;;;;;;11.43;3.22;;;;;;;9.07;100.00;100251.03;4993424;28;20105;-74
2021/12/30 06:34:19;;;;;;;8.55;3.95;;;;;;;9.15;100.00;100255.41;4991444;28;20045;-75
2021/12/30 06:36:44;;;;;;;15.05;3.65;;;;;;;9.24;100.00;100253.28;4989620;28;20117;-75
2021/12/30 06:39:10;;;;;;;15.43;3.75;;;;;;;9.18;100.00;100243.16;4986448;28;20050;-74
2021/12/30 06:41:36;;;;;;;12.55;3.42;;;;;;;9.10;100.00;100240.34;4972135;28;20556;-74
2021/12/30 06:44:01;;;;;;;9.45;3.63;;;;;;;9.23;100.00;100242.88;4987710;28;20042;-74
2021/12/30 06:46:27;;;;;;;7.30;2.92;;;;;;;9.13;100.00;100255.00;4991038;28;20078;-75
2021/12/30 06:48:52;;;;;;;16.23;3.95;;;;;;;9.26;100.00;100258.28;4996903;28;20031;-74
2021/12/30 06:51:22;;;;;;;12.55;3.65;;;;;;;9.18;100.00;100256.59;4977231;28;20051;-74
2021/12/30 06:53:47;;;;;;;18.17;3.10;;;;;;;9.18;100.00;100257.38;4969951;28;20056;-74
2021/12/30 06:56:14;;;;;;;7.95;3.20;;;;;;;9.19;100.00;100274.28;4984697;28;20026;-74
2021/12/30 06:58:42;;;;;;;8.90;4.05;;;;;;;9.21;100.00;100288.94;4970637;28;20039;-75
2021/12/30 07:01:07;;;;;;;16.08;3.50;;;;;;;9.18;100.00;100294.19;4981156;28;20129;-74
2021/12/30 07:03:36;;;;;;;12.40;3.17;;;;;;;9.18;100.00;100286.16;4990237;28;20043;-74
2021/12/30 07:06:01;;;;;;;13.23;3.88;;;;;;;9.21;100.00;100266.66;4970635;28;20022;-74
2021/12/30 07:08:26;;;;;;;11.57;4.13;;;;;;;9.35;100.00;100254.25;4972172;28;20031;-74
2021/12/30 07:10:52;;;;;;;10.18;3.70;;;;;;;9.31;100.00;100244.59;4975732;28;20043;-74
2021/12/30 07:13:17;;;;;;;8.25;3.10;;;;;;;9.30;100.00;100248.38;4971392;28;20046;-74
2021/12/30 07:15:43;;;;;;;10.32;3.72;;;;;;;9.32;100.00;100252.28;4971519;28;20035;-74
2021/12/30 07:18:09;;;;;;;7.03;3.15;;;;;;;9.28;100.00;100256.81;4991201;28;20038;-74
2021/12/30 07:20:34;;;;;;;8.43;3.38;;;;;;;9.36;100.00;100268.47;4990850;28;20043;-74
2021/12/30 07:23:03;;;;;;;4.72;2.50;;;;;;;9.30;100.00;100281.41;4984166;28;20108;-74
2021/12/30 07:25:28;;;;;;;5.85;2.60;;;;;;;9.26;100.00;100288.63;4977808;28;20110;-74
2021/12/30 07:27:57;;;;;;;9.73;4.38;;;;;;;9.35;100.00;100285.72;4986064;28;20035;-74
2021/12/30 07:30:25;;;;;;;14.52;3.65;;;;;;;9.41;100.00;100292.34;4990809;28;20042;-74
2021/12/30 07:32:52;;;;;;;8.95;3.10;;;;;;;9.36;100.00;100290.75;4987618;28;20062;-74
2021/12/30 07:35:19;;;;;;;10.80;3.53;;;;;;;9.35;100.00;100293.78;4986293;28;20030;-74
2021/12/30 07:37:45;;;;;;;15.18;2.90;;;;;;;9.30;100.00;100300.22;4977317;28;20522;-74
2021/12/30 07:40:11;;;;;;;5.38;2.72;;;;;;;9.46;100.00;100290.19;4975215;28;20655;-75
2021/12/30 07:42:37;;;;;;;9.93;3.55;;;;;;;9.36;100.00;100306.88;4989727;28;20093;-74
2021/12/30 07:45:04;;;;;;;12.85;3.30;;;;;;;9.39;100.00;100302.69;4984503;28;20031;-74
2021/12/30 07:47:29;;;;;;;7.60;3.22;;;;;;;9.50;100.00;100290.22;4983966;28;20038;-74
2021/12/30 07:49:54;;;;;;;12.55;3.28;;;;;;;9.47;100.00;100291.72;4992741;28;20554;-74
2021/12/30 07:52:20;;;;;;;7.82;3.10;;;;;;;9.39;100.00;100302.69;4991627;28;20061;-74
2021/12/30 07:54:45;;;;;;;10.13;3.28;;;;;;;9.29;100.00;100308.66;4994899;28;20034;-74
2021/12/30 07:57:12;;;;;;;8.18;3.22;;;;;;;9.43;100.00;100301.63;4993899;28;20170;-74
2021/12/30 07:59:37;;;;;;;9.18;3.42;;;;;;;9.59;100.00;100298.84;4986516;28;20043;-74
2021/12/30 08:02:04;;;;;;;8.93;2.92;;;;;;;9.48;100.00;100297.88;4991535;28;20061;-74
2021/12/30 08:04:29;;;;;;;10.80;3.03;;;;;;;9.50;100.00;100295.59;4992784;28;20061;-74
2021/12/30 08:06:56;;;;;;;10.70;3.42;;;;;;;9.50;100.00;100303.66;4994377;28;20039;-74
2021/12/30 08:09:24;;;;;;;7.80;2.75;;;;;;;9.49;100.00;100300.19;4987239;28;20047;-74
2021/12/30 08:11:49;;;;;;;12.35;3.40;;;;;;;9.50;100.00;100306.34;4990592;28;20042;-74
2021/12/30 08:14:15;;;;;;;9.60;3.03;;;;;;;9.47;100.00;100315.13;4979015;28;20377;-75
2021/12/30 08:16:43;;;;;;;10.35;3.60;;;;;;;9.53;100.00;100309.09;4979176;28;20034;-74
2021/12/30 08:19:09;;;;;;;10.57;3.60;;;;;;;9.43;100.00;100295.47;4993168;28;20065;-74
2021/12/30 08:21:34;;;;;;;14.95;3.55;;;;;;;9.52;100.00;100306.78;4991548;28;20042;-74
2021/12/30 08:24:00;;;;;;;9.43;3.33;;;;;;;9.51;100.00;100308.69;4994158;28;20041;-74
2021/12/30 08:26:25;;;;;;;12.95;3.83;;;;;;;9.50;100.00;100296.41;4990151;28;20499;-74
2021/12/30 08:28:51;;;;;;;8.43;3.10;;;;;;;9.50;100.00;100293.72;4992751;28;20514;-74
2021/12/30 08:31:16;;;;;;;9.30;2.92;;;;;;;9.45;100.00;100299.34;4991042;28;20038;-74
2021/12/30 08:33:43;;;;;;;12.85;3.67;;;;;;;9.54;100.00;100297.22;4992430;28;20042;-75
2021/12/30 08:36:08;;;;;;;12.00;3.70;;;;;;;9.53;100.00;100305.63;4989017;28;20031;-74
2021/12/30 08:38:34;;;;;;;10.25;4.85;;;;;;;9.62;100.00;100309.66;4993173;28;20109;-74
2021/12/30 08:40:59;;;;;;;11.30;4.28;;;;;;;9.64;100.00;100317.38;4977373;28;20042;-74
2021/12/30 08:43:26;;;;;;;20.52;3.20;;;;;;;9.54;100.00;100326.78;4981854;28;20084;-74
2021/12/30 08:45:51;;;;;;;11.75;4.00;;;;;;;9.68;100.00;100324.38;4990648;28;20038;-74
2021/12/30 08:48:19;;;;;;;12.77;4.93;;;;;;;9.60;100.00;100332.66;4992430;28;20142;-74
2021/12/30 08:50:45;;;;;;;8.68;3.78;;;;;;;9.81;100.00;100327.69;4992030;28;20030;-74
2021/12/30 08:53:11;;;;;;;9.45;3.58;;;;;;;9.75;100.00;100307.59;4990875;28;20042;-74
2021/12/30 08:55:36;;;;;;;10.20;3.50;;;;;;;9.72;100.00;100319.03;4991446;28;20065;-74
2021/12/30 08:58:02;;;;;;;8.38;3.83;;;;;;;9.75;100.00;100316.44;4992969;28;20482;-74
2021/12/30 09:00:30;;;;;;;10.75;3.55;;;;;;;9.85;100.00;100312.38;4974383;28;20534;-74
2021/12/30 09:02:58;;;;;;;13.48;3.30;;;;;;;9.78;100.00;100314.94;4987974;28;20507;-74
2021/12/30 09:05:25;;;;;;;17.45;3.95;;;;;;;9.87;100.00;100307.44;4975675;28;20038;-74
2021/12/30 09:07:51;;;;;;;9.48;4.10;;;;;;;9.86;100.00;100325.47;4991971;28;20081;-74
2021/12/30 09:10:17;;;;;;;14.77;3.33;;;;;;;9.80;100.00;100318.03;4990176;28;20074;-73
2021/12/30 09:12:46;;;;;;;10.40;3.28;;;;;;;9.88;100.00;100322.41;4970841;28;20037;-74
2021/12/30 09:15:13;;;;;;;12.75;3.60;;;;;;;9.91;100.00;100325.16;4993594;28;20034;-74
2021/12/30 09:17:41;;;;;;;9.35;3.20;;;;;;;9.94;100.00;100323.69;4994505;28;20041;-74
2021/12/30 09:20:07;;;;;;;7.65;3.15;;;;;;;9.91;100.00;100319.78;5009579;28;20022;-74
2021/12/30 09:22:36;;;;;;;6.97;3.00;;;;;;;9.97;100.00;100314.88;4983803;28;20399;-74
2021/12/30 09:25:06;;;;;;;13.10;4.00;;;;;;;9.99;100.00;100305.31;4989720;28;20049;-74
2021/12/30 09:27:39;;;;;;;8.23;3.03;;;;;;;10.01;100.00;100302.25;4992002;28;20038;-74
2021/12/30 09:30:07;;;;;;;17.92;3.83;;;;;;;9.97;100.00;100306.81;4992160;28;20066;-74
2021/12/30 09:32:33;;;;;;;13.73;3.97;;;;;;;10.02;100.00;100296.56;4989677;28;20042;-74
2021/12/30 09:34:59;;;;;;;13.27;2.88;;;;;;;10.08;100.00;100305.09;4990965;28;20071;-74
2021/12/30 09:37:24;;;;;;;10.48;3.63;;;;;;;10.04;100.00;100293.50;4991166;28;20042;-74
2021/12/30 09:39:49;;;;;;;7.25;3.20;;;;;;;9.99;100.00;100305.31;4990828;28;20142;-74
2021/12/30 09:42:15;;;;;;;16.23;3.80;;;;;;;10.02;100.00;100306.53;4987196;28;20054;-74
2021/12/30 09:44:40;;;;;;;15.07;4.13;;;;;;;9.93;100.00;100292.53;4991025;28;20022;-73
2021/12/30 09:47:06;;;;;;;9.88;3.33;;;;;;;9.96;100.00;100294.50;4965817;28;20475;-73
2021/12/30 09:49:32;;;;;;;13.90;3.72;;;;;;;10.01;100.00;100291.50;4991505;28;20150;-73
2021/12/30 09:51:57;;;;;;;11.93;3.55;;;;;;;10.12;100.00;100295.19;4989260;28;20030;-73
2021/12/30 09:54:23;;;;;;;17.08;3.55;;;;;;;10.01;100.00;100284.22;4991064;28;20121;-73
2021/12/30 09:56:52;;;;;;;13.13;3.55;;;;;;;10.14;100.00;100276.78;4984097;28;20048;-73
2021/12/30 09:59:19;;;;;;;13.55;3.95;;;;;;;10.15;100.00;100272.94;4992047;28;20065;-73
2021/12/30 10:01:44;;;;;;;10.25;3.35;;;;;;;10.16;100.00;100285.28;4989560;28;20042;-73
2021/12/30 10:04:12;;;;;;;11.85;4.22;;;;;;;10.19;100.00;100279.16;4983756;28;20465;-73
2021/12/30 10:06:49;;;;;;;8.80;3.05;;;;;;;10.34;100.00;100274.75;4987946;28;20129;-73
2021/12/30 10:09:16;;;;;;;12.95;4.15;;;;;;;10.27;100.00;100275.44;4989341;28;20112;-73
2021/12/30 10:11:56;;;;;;;14.20;4.53;;;;;;;10.26;100.00;100279.25;4971721;28;20058;-73
2021/12/30 10:14:39;;;;;;;10.98;3.50;;;;;;;10.40;100.00;100276.78;4996055;28;20043;-73
2021/12/30 10:17:14;;;;;;;17.77;5.47;;;;;;;10.39;100.00;100283.31;4989046;28;20030;-73
2021/12/30 10:19:40;;;;;;;10.60;3.28;;;;;;;10.36;100.00;100289.41;4999620;28;20081;-73
2021/12/30 10:22:14;;;;;;;7.43;2.90;;;;;;;10.36;100.00;100288.63;4967581;28;20030;-73
2021/12/30 10:24:39;;;;;;;11.52;3.30;;;;;;;10.26;100.00;100281.94;4983513;28;20049;-73
2021/12/30 10:27:06;;;;;;;11.10;3.10;;;;;;;10.34;100.00;100272.84;4986734;28;20038;-73
2021/12/30 10:29:43;;;;;;;12.88;3.15;;;;;;;10.35;100.00;100274.41;4984033;28;20045;-73
2021/12/30 10:32:22;;;;;;;6.50;2.72;;;;;;;10.38;100.00;100256.75;4975613;28;20039;-73
2021/12/30 10:35:13;;;;;;;9.98;3.60;;;;;;;10.31;100.00;100260.13;4987574;28;20640;-73
2021/12/30 10:37:46;;;;;;;5.00;2.47;;;;;;;10.29;100.00;100257.03;4990404;28;20479;-73
2021/12/30 10:40:29;;;;;;;11.73;2.88;;;;;;;10.27;100.00;100256.59;4989123;28;20113;-73
2021/12/30 10:43:13;;;;;;;6.85;2.90;;;;;;;10.26;100.00;100249.66;4986667;28;20062;-74
2021/12/30 10:45:39;;;;;;;5.97;2.38;;;;;;;10.39;100.00;100244.84;4979583;28;20444;-74
2021/12/30 10:48:08;;;;;;;8.80;2.65;;;;;;;10.38;100.00;100244.06;4988913;28;20058;-73
2021/12/30 10:50:34;;;;;;;10.45;3.15;;;;;;;10.44;100.00;100241.84;4986407;28;20109;-73
2021/12/30 10:53:00;;;;;;;6.32;2.30;;;;;;;10.51;100.00;100241.94;4989116;28;20129;-74
2021/12/30 10:55:25;;;;;;;8.43;3.17;;;;;;;10.37;100.00;100247.91;4994664;28;20487;-73
2021/12/30 10:57:51;;;;;;;6.43;2.63;;;;;;;10.41;100.00;100247.97;4986193;28;20084;-74
2021/12/30 11:00:46;;;;;;;8.00;2.78;;;;;;;10.46;100.00;100244.94;4975321;28;20034;-74
2021/12/30 11:03:25;;;;;;;5.43;2.22;;;;;;;10.54;100.00;100243.91;4965750;28;20443;-74
2021/12/30 11:06:13;;;;;;;4.88;2.15;;;;;;;10.57;100.00;100235.09;4988047;28;20034;-74
2021/12/30 11:08:40;;;;;;;5.95;2.60;;;;;;;10.62;100.00;100232.88;4982573;28;20037;-74
2021/12/30 11:11:24;;;;;;;6.45;2.80;;;;;;;10.56;100.00;100237.03;4985238;28;20117;-74
2021/12/30 11:14:02;;;;;;;8.02;1.95;;;;;;;10.60;100.00;100237.06;4987033;28;20050;-74
2021/12/30 11:16:29;;;;;;;4.95;1.77;;;;;;;10.70;100.00;100229.09;4986469;28;20023;-74
2021/12/30 11:18:56;;;;;;;7.28;2.30;;;;;;;10.72;100.00;100220.69;4988382;28;20042;-74
2021/12/30 11:21:34;;;;;;;3.40;1.65;;;;;;;10.70;100.00;100231.81;4974599;28;20495;-74